sensor_id;sensor_type;location;lat;lon;timestamp;temperature;humidity
74178;DHT22;62540;48.456;-4.456;2023-12-07T00:01:10;12.13;84.49
74178;DHT22;62540;48.456;-4.456;2023-12-07T00:03:35;12.13;84.51
74178;DHT22;62540;48.456;-4.456;2023-12-07T00:06:00;12.13;84.56
74178;DHT22;62540;48.456;-4.456;2023-12-07T00:08:26;12.23;84.48
74178;DHT22;62540;48.456;-4.456;2023-12-07T00:10:51;12.17;84.33
74178;DHT22;62540;48.456;-4.456;2023-12-07T00:13:17;12.21;84.36
74178;DHT22;62540;48.456;-4.456;2023-12-07T00:15:42;12.23;84.44
74178;DHT22;62540;48.456;-4.456;2023-12-07T00:18:08;12.23;84.48
74178;DHT22;62540;48.456;-4.456;2023-12-07T00:20:34;12.27;84.47
74178;DHT22;62540;48.456;-4.456;2023-12-07T00:22:59;12.28;84.42
74178;DHT22;62540;48.456;-4.456;2023-12-07T00:25:25;12.27;84.39
74178;DHT22;62540;48.456;-4.456;2023-12-07T00:27:50;12.20;84.66
74178;DHT22;62540;48.456;-4.456;2023-12-07T00:30:16;12.21;84.72
74178;DHT22;62540;48.456;-4.456;2023-12-07T00:32:41;12.21;84.79
74178;DHT22;62540;48.456;-4.456;2023-12-07T00:35:09;12.23;84.82
74178;DHT22;62540;48.456;-4.456;2023-12-07T00:37:34;12.25;84.68
74178;DHT22;62540;48.456;-4.456;2023-12-07T00:40:00;12.25;84.65
74178;DHT22;62540;48.456;-4.456;2023-12-07T00:42:27;12.28;84.74
74178;DHT22;62540;48.456;-4.456;2023-12-07T00:44:53;12.21;84.72
74178;DHT22;62540;48.456;-4.456;2023-12-07T00:47:19;12.21;84.82
74178;DHT22;62540;48.456;-4.456;2023-12-07T00:49:44;12.23;84.71
74178;DHT22;62540;48.456;-4.456;2023-12-07T00:52:10;12.30;84.59
74178;DHT22;62540;48.456;-4.456;2023-12-07T00:54:35;12.24;84.55
74178;DHT22;62540;48.456;-4.456;2023-12-07T00:57:00;12.23;84.70
74178;DHT22;62540;48.456;-4.456;2023-12-07T00:59:26;12.28;84.65
74178;DHT22;62540;48.456;-4.456;2023-12-07T01:01:51;12.28;84.57
74178;DHT22;62540;48.456;-4.456;2023-12-07T01:04:16;12.27;84.46
74178;DHT22;62540;48.456;-4.456;2023-12-07T01:06:43;12.28;84.32
74178;DHT22;62540;48.456;-4.456;2023-12-07T01:09:08;12.31;84.30
74178;DHT22;62540;48.456;-4.456;2023-12-07T01:11:39;12.28;84.22
74178;DHT22;62540;48.456;-4.456;2023-12-07T01:14:07;12.23;84.37
74178;DHT22;62540;48.456;-4.456;2023-12-07T01:16:32;12.20;84.55
74178;DHT22;62540;48.456;-4.456;2023-12-07T01:18:58;12.20;84.66
74178;DHT22;62540;48.456;-4.456;2023-12-07T01:21:24;12.21;84.80
74178;DHT22;62540;48.456;-4.456;2023-12-07T01:23:49;12.23;84.69
74178;DHT22;62540;48.456;-4.456;2023-12-07T01:26:14;12.18;84.69
74178;DHT22;62540;48.456;-4.456;2023-12-07T01:28:40;12.18;84.73
74178;DHT22;62540;48.456;-4.456;2023-12-07T01:31:05;12.17;84.71
74178;DHT22;62540;48.456;-4.456;2023-12-07T01:33:30;12.20;84.76
74178;DHT22;62540;48.456;-4.456;2023-12-07T01:35:56;12.18;84.68
74178;DHT22;62540;48.456;-4.456;2023-12-07T01:38:22;12.21;84.74
74178;DHT22;62540;48.456;-4.456;2023-12-07T01:40:47;12.23;84.62
74178;DHT22;62540;48.456;-4.456;2023-12-07T01:43:12;12.11;84.64
74178;DHT22;62540;48.456;-4.456;2023-12-07T01:45:38;12.14;84.79
74178;DHT22;62540;48.456;-4.456;2023-12-07T01:48:04;12.16;84.82
74178;DHT22;62540;48.456;-4.456;2023-12-07T01:50:29;12.13;84.79
74178;DHT22;62540;48.456;-4.456;2023-12-07T01:53:01;12.17;84.76
74178;DHT22;62540;48.456;-4.456;2023-12-07T01:55:27;12.13;84.66
74178;DHT22;62540;48.456;-4.456;2023-12-07T01:57:54;12.08;84.73
74178;DHT22;62540;48.456;-4.456;2023-12-07T02:00:20;12.17;84.75
74178;DHT22;62540;48.456;-4.456;2023-12-07T02:02:47;12.17;84.70
74178;DHT22;62540;48.456;-4.456;2023-12-07T02:05:16;12.14;84.77
74178;DHT22;62540;48.456;-4.456;2023-12-07T02:07:43;12.17;84.81
74178;DHT22;62540;48.456;-4.456;2023-12-07T02:10:10;12.16;84.74
74178;DHT22;62540;48.456;-4.456;2023-12-07T02:12:36;12.20;84.77
74178;DHT22;62540;48.456;-4.456;2023-12-07T02:15:02;12.16;84.76
74178;DHT22;62540;48.456;-4.456;2023-12-07T02:22:48;12.21;84.99
74178;DHT22;62540;48.456;-4.456;2023-12-07T02:25:18;12.21;84.84
74178;DHT22;62540;48.456;-4.456;2023-12-07T02:27:44;12.25;84.91
74178;DHT22;62540;48.456;-4.456;2023-12-07T02:30:14;12.21;85.08
74178;DHT22;62540;48.456;-4.456;2023-12-07T02:32:41;12.25;85.06
74178;DHT22;62540;48.456;-4.456;2023-12-07T02:35:08;12.30;84.93
74178;DHT22;62540;48.456;-4.456;2023-12-07T02:37:50;12.30;84.86
74178;DHT22;62540;48.456;-4.456;2023-12-07T02:40:24;12.30;84.98
74178;DHT22;62540;48.456;-4.456;2023-12-07T02:42:52;12.27;85.07
74178;DHT22;62540;48.456;-4.456;2023-12-07T02:45:18;12.27;84.99
74178;DHT22;62540;48.456;-4.456;2023-12-07T02:47:43;12.31;85.01
74178;DHT22;62540;48.456;-4.456;2023-12-07T02:50:11;12.30;85.01
74178;DHT22;62540;48.456;-4.456;2023-12-07T02:52:36;12.31;84.77
74178;DHT22;62540;48.456;-4.456;2023-12-07T02:55:02;12.25;84.80
74178;DHT22;62540;48.456;-4.456;2023-12-07T02:57:28;12.24;84.87
74178;DHT22;62540;48.456;-4.456;2023-12-07T02:59:53;12.25;84.88
74178;DHT22;62540;48.456;-4.456;2023-12-07T03:02:19;12.23;84.87
74178;DHT22;62540;48.456;-4.456;2023-12-07T03:04:44;12.25;84.91
74178;DHT22;62540;48.456;-4.456;2023-12-07T03:07:10;12.24;84.84
74178;DHT22;62540;48.456;-4.456;2023-12-07T03:09:35;12.20;84.86
74178;DHT22;62540;48.456;-4.456;2023-12-07T03:12:00;12.20;84.99
74178;DHT22;62540;48.456;-4.456;2023-12-07T03:14:26;12.23;84.90
74178;DHT22;62540;48.456;-4.456;2023-12-07T03:16:51;12.21;84.86
74178;DHT22;62540;48.456;-4.456;2023-12-07T03:19:16;12.27;84.84
74178;DHT22;62540;48.456;-4.456;2023-12-07T03:21:42;12.27;84.81
74178;DHT22;62540;48.456;-4.456;2023-12-07T03:24:11;12.23;84.80
74178;DHT22;62540;48.456;-4.456;2023-12-07T03:26:37;12.20;84.83
74178;DHT22;62540;48.456;-4.456;2023-12-07T03:29:03;12.20;84.85
74178;DHT22;62540;48.456;-4.456;2023-12-07T03:31:28;12.21;84.86
74178;DHT22;62540;48.456;-4.456;2023-12-07T03:33:55;12.27;84.88
74178;DHT22;62540;48.456;-4.456;2023-12-07T03:36:21;12.24;84.83
74178;DHT22;62540;48.456;-4.456;2023-12-07T03:38:47;12.25;84.86
74178;DHT22;62540;48.456;-4.456;2023-12-07T03:41:12;12.24;84.84
74178;DHT22;62540;48.456;-4.456;2023-12-07T03:43:38;12.25;84.80
74178;DHT22;62540;48.456;-4.456;2023-12-07T03:46:04;12.24;84.85
74178;DHT22;62540;48.456;-4.456;2023-12-07T03:48:30;12.24;84.91
74178;DHT22;62540;48.456;-4.456;2023-12-07T03:50:55;12.25;84.91
74178;DHT22;62540;48.456;-4.456;2023-12-07T03:53:21;12.27;84.94
74178;DHT22;62540;48.456;-4.456;2023-12-07T03:55:46;12.27;84.97
74178;DHT22;62540;48.456;-4.456;2023-12-07T03:58:11;12.25;84.99
74178;DHT22;62540;48.456;-4.456;2023-12-07T04:00:38;12.27;84.92
74178;DHT22;62540;48.456;-4.456;2023-12-07T04:03:04;12.28;85.05
74178;DHT22;62540;48.456;-4.456;2023-12-07T04:05:29;12.30;85.05
74178;DHT22;62540;48.456;-4.456;2023-12-07T04:07:54;12.28;84.81
74178;DHT22;62540;48.456;-4.456;2023-12-07T04:10:20;12.24;84.78
74178;DHT22;62540;48.456;-4.456;2023-12-07T04:12:45;12.21;84.85
74178;DHT22;62540;48.456;-4.456;2023-12-07T04:15:11;12.18;84.97
74178;DHT22;62540;48.456;-4.456;2023-12-07T04:17:36;12.17;84.89
74178;DHT22;62540;48.456;-4.456;2023-12-07T04:20:01;12.23;84.84
74178;DHT22;62540;48.456;-4.456;2023-12-07T04:22:27;12.21;84.76
74178;DHT22;62540;48.456;-4.456;2023-12-07T04:24:54;12.18;84.79
74178;DHT22;62540;48.456;-4.456;2023-12-07T04:27:19;12.14;84.83
74178;DHT22;62540;48.456;-4.456;2023-12-07T04:29:44;12.16;84.82
74178;DHT22;62540;48.456;-4.456;2023-12-07T04:32:10;12.16;84.89
74178;DHT22;62540;48.456;-4.456;2023-12-07T04:34:36;12.20;84.85
74178;DHT22;62540;48.456;-4.456;2023-12-07T04:37:01;12.23;84.81
74178;DHT22;62540;48.456;-4.456;2023-12-07T04:39:27;12.24;84.68
74178;DHT22;62540;48.456;-4.456;2023-12-07T04:41:53;12.24;84.71
74178;DHT22;62540;48.456;-4.456;2023-12-07T04:44:19;12.28;84.66
74178;DHT22;62540;48.456;-4.456;2023-12-07T04:46:44;12.28;84.76
74178;DHT22;62540;48.456;-4.456;2023-12-07T04:49:10;12.24;84.79
74178;DHT22;62540;48.456;-4.456;2023-12-07T04:51:35;12.28;84.78
74178;DHT22;62540;48.456;-4.456;2023-12-07T04:54:00;12.24;84.69
74178;DHT22;62540;48.456;-4.456;2023-12-07T04:56:26;12.21;84.86
74178;DHT22;62540;48.456;-4.456;2023-12-07T04:58:51;12.27;84.85
74178;DHT22;62540;48.456;-4.456;2023-12-07T05:01:17;12.31;84.79
74178;DHT22;62540;48.456;-4.456;2023-12-07T05:03:44;12.28;84.72
74178;DHT22;62540;48.456;-4.456;2023-12-07T05:06:09;12.30;84.80
74178;DHT22;62540;48.456;-4.456;2023-12-07T05:08:35;12.30;84.73
74178;DHT22;62540;48.456;-4.456;2023-12-07T05:11:00;12.30;84.69
74178;DHT22;62540;48.456;-4.456;2023-12-07T05:13:26;12.30;84.77
74178;DHT22;62540;48.456;-4.456;2023-12-07T05:15:51;12.28;84.79
74178;DHT22;62540;48.456;-4.456;2023-12-07T05:18:16;12.32;84.67
74178;DHT22;62540;48.456;-4.456;2023-12-07T05:20:42;12.27;84.70
74178;DHT22;62540;48.456;-4.456;2023-12-07T05:23:08;12.28;84.80
74178;DHT22;62540;48.456;-4.456;2023-12-07T05:25:33;12.20;84.91
74178;DHT22;62540;48.456;-4.456;2023-12-07T05:27:59;12.20;85.04
74178;DHT22;62540;48.456;-4.456;2023-12-07T05:30:24;12.23;84.94
74178;DHT22;62540;48.456;-4.456;2023-12-07T05:32:50;12.25;84.89
74178;DHT22;62540;48.456;-4.456;2023-12-07T05:35:16;12.24;84.77
74178;DHT22;62540;48.456;-4.456;2023-12-07T05:37:41;12.27;84.72
74178;DHT22;62540;48.456;-4.456;2023-12-07T05:40:07;12.30;84.68
74178;DHT22;62540;48.456;-4.456;2023-12-07T05:42:34;12.27;84.68
74178;DHT22;62540;48.456;-4.456;2023-12-07T05:45:00;12.25;84.71
74178;DHT22;62540;48.456;-4.456;2023-12-07T05:47:26;12.25;84.83
74178;DHT22;62540;48.456;-4.456;2023-12-07T05:49:51;12.30;84.88
74178;DHT22;62540;48.456;-4.456;2023-12-07T05:52:17;12.28;84.85
74178;DHT22;62540;48.456;-4.456;2023-12-07T05:54:42;12.30;84.92
74178;DHT22;62540;48.456;-4.456;2023-12-07T05:57:08;12.28;84.95
74178;DHT22;62540;48.456;-4.456;2023-12-07T05:59:37;12.28;85.11
74178;DHT22;62540;48.456;-4.456;2023-12-07T06:02:03;12.32;85.22
74178;DHT22;62540;48.456;-4.456;2023-12-07T06:04:29;12.34;85.03
74178;DHT22;62540;48.456;-4.456;2023-12-07T06:06:55;12.32;85.01
74178;DHT22;62540;48.456;-4.456;2023-12-07T06:09:20;12.34;85.04
74178;DHT22;62540;48.456;-4.456;2023-12-07T06:11:46;12.32;85.05
74178;DHT22;62540;48.456;-4.456;2023-12-07T06:14:11;12.37;85.04
74178;DHT22;62540;48.456;-4.456;2023-12-07T06:16:36;12.38;85.07
74178;DHT22;62540;48.456;-4.456;2023-12-07T06:19:02;12.42;84.97
74178;DHT22;62540;48.456;-4.456;2023-12-07T06:21:27;12.41;84.88
74178;DHT22;62540;48.456;-4.456;2023-12-07T06:23:55;12.40;84.87
74178;DHT22;62540;48.456;-4.456;2023-12-07T06:26:20;12.40;84.92
74178;DHT22;62540;48.456;-4.456;2023-12-07T06:28:45;12.44;84.77
74178;DHT22;62540;48.456;-4.456;2023-12-07T06:31:11;12.41;84.81
74178;DHT22;62540;48.456;-4.456;2023-12-07T06:33:37;12.34;85.05
74178;DHT22;62540;48.456;-4.456;2023-12-07T06:36:03;12.41;85.11
74178;DHT22;62540;48.456;-4.456;2023-12-07T06:38:29;12.45;85.06
74178;DHT22;62540;48.456;-4.456;2023-12-07T06:40:55;12.46;84.99
74178;DHT22;62540;48.456;-4.456;2023-12-07T06:43:21;12.49;84.89
74178;DHT22;62540;48.456;-4.456;2023-12-07T06:45:47;12.58;84.79
74178;DHT22;62540;48.456;-4.456;2023-12-07T06:48:13;12.55;84.71
74178;DHT22;62540;48.456;-4.456;2023-12-07T06:50:39;12.51;84.84
74178;DHT22;62540;48.456;-4.456;2023-12-07T06:53:04;12.51;85.00
74178;DHT22;62540;48.456;-4.456;2023-12-07T06:55:30;12.49;85.00
74178;DHT22;62540;48.456;-4.456;2023-12-07T06:57:55;12.46;85.06
74178;DHT22;62540;48.456;-4.456;2023-12-07T07:00:21;12.48;85.10
74178;DHT22;62540;48.456;-4.456;2023-12-07T07:02:46;12.52;85.11
74178;DHT22;62540;48.456;-4.456;2023-12-07T07:05:12;12.46;85.09
74178;DHT22;62540;48.456;-4.456;2023-12-07T07:07:38;12.48;85.20
74178;DHT22;62540;48.456;-4.456;2023-12-07T07:10:04;12.44;85.33
74178;DHT22;62540;48.456;-4.456;2023-12-07T07:12:29;12.52;85.22
74178;DHT22;62540;48.456;-4.456;2023-12-07T07:14:55;12.52;85.19
74178;DHT22;62540;48.456;-4.456;2023-12-07T07:17:21;12.52;85.21
74178;DHT22;62540;48.456;-4.456;2023-12-07T07:19:46;12.52;85.24
74178;DHT22;62540;48.456;-4.456;2023-12-07T07:22:12;12.49;85.26
74178;DHT22;62540;48.456;-4.456;2023-12-07T07:24:37;12.48;85.32
74178;DHT22;62540;48.456;-4.456;2023-12-07T07:27:03;12.53;85.31
74178;DHT22;62540;48.456;-4.456;2023-12-07T07:29:29;12.51;85.20
74178;DHT22;62540;48.456;-4.456;2023-12-07T07:31:54;12.51;85.18
74178;DHT22;62540;48.456;-4.456;2023-12-07T07:34:21;12.56;85.03
74178;DHT22;62540;48.456;-4.456;2023-12-07T07:36:46;12.58;84.93
74178;DHT22;62540;48.456;-4.456;2023-12-07T07:39:11;12.59;84.89
74178;DHT22;62540;48.456;-4.456;2023-12-07T07:41:39;12.59;84.79
74178;DHT22;62540;48.456;-4.456;2023-12-07T07:44:04;12.63;84.79
74178;DHT22;62540;48.456;-4.456;2023-12-07T07:46:30;12.61;84.77
74178;DHT22;62540;48.456;-4.456;2023-12-07T07:48:55;12.62;84.77
74178;DHT22;62540;48.456;-4.456;2023-12-07T07:51:20;12.65;84.77
74178;DHT22;62540;48.456;-4.456;2023-12-07T07:53:46;12.63;84.66
74178;DHT22;62540;48.456;-4.456;2023-12-07T07:56:11;12.61;84.66
74178;DHT22;62540;48.456;-4.456;2023-12-07T07:58:37;12.53;84.91
74178;DHT22;62540;48.456;-4.456;2023-12-07T08:01:02;12.48;85.16
74178;DHT22;62540;48.456;-4.456;2023-12-07T08:03:28;12.52;85.30
74178;DHT22;62540;48.456;-4.456;2023-12-07T08:05:54;12.42;85.17
74178;DHT22;62540;48.456;-4.456;2023-12-07T08:08:19;12.42;85.26
74178;DHT22;62540;48.456;-4.456;2023-12-07T08:10:44;12.41;85.33
74178;DHT22;62540;48.456;-4.456;2023-12-07T08:13:10;12.42;85.40
74178;DHT22;62540;48.456;-4.456;2023-12-07T08:15:35;12.40;85.39
74178;DHT22;62540;48.456;-4.456;2023-12-07T08:18:01;12.44;85.28
74178;DHT22;62540;48.456;-4.456;2023-12-07T08:20:27;12.46;85.17
74178;DHT22;62540;48.456;-4.456;2023-12-07T08:22:52;12.45;85.04
74178;DHT22;62540;48.456;-4.456;2023-12-07T08:25:18;12.46;85.08
74178;DHT22;62540;48.456;-4.456;2023-12-07T08:27:43;12.53;84.99
74178;DHT22;62540;48.456;-4.456;2023-12-07T08:30:10;12.48;84.80
74178;DHT22;62540;48.456;-4.456;2023-12-07T08:32:36;12.48;84.98
74178;DHT22;62540;48.456;-4.456;2023-12-07T08:35:02;12.49;84.97
74178;DHT22;62540;48.456;-4.456;2023-12-07T08:37:27;12.52;84.98
74178;DHT22;62540;48.456;-4.456;2023-12-07T08:39:54;12.51;85.05
74178;DHT22;62540;48.456;-4.456;2023-12-07T08:42:19;12.46;85.08
74178;DHT22;62540;48.456;-4.456;2023-12-07T08:44:45;12.52;85.20
74178;DHT22;62540;48.456;-4.456;2023-12-07T08:47:10;12.52;85.21
74178;DHT22;62540;48.456;-4.456;2023-12-07T08:49:35;12.58;85.19
74178;DHT22;62540;48.456;-4.456;2023-12-07T08:52:02;12.55;85.15
74178;DHT22;62540;48.456;-4.456;2023-12-07T08:54:27;12.55;85.29
74178;DHT22;62540;48.456;-4.456;2023-12-07T08:56:53;12.62;85.24
74178;DHT22;62540;48.456;-4.456;2023-12-07T08:59:18;12.63;85.15
74178;DHT22;62540;48.456;-4.456;2023-12-07T09:01:43;12.65;85.21
74178;DHT22;62540;48.456;-4.456;2023-12-07T09:04:09;12.65;85.28
74178;DHT22;62540;48.456;-4.456;2023-12-07T09:06:36;12.68;85.29
74178;DHT22;62540;48.456;-4.456;2023-12-07T09:09:02;12.69;85.29
74178;DHT22;62540;48.456;-4.456;2023-12-07T09:11:29;12.68;85.24
74178;DHT22;62540;48.456;-4.456;2023-12-07T09:13:55;12.72;85.17
74178;DHT22;62540;48.456;-4.456;2023-12-07T09:16:20;12.69;85.04
74178;DHT22;62540;48.456;-4.456;2023-12-07T09:18:46;12.69;85.13
74178;DHT22;62540;48.456;-4.456;2023-12-07T09:21:12;12.73;85.06
74178;DHT22;62540;48.456;-4.456;2023-12-07T09:23:38;12.75;84.99
74178;DHT22;62540;48.456;-4.456;2023-12-07T09:26:04;12.71;84.92
74178;DHT22;62540;48.456;-4.456;2023-12-07T09:28:29;12.73;84.98
74178;DHT22;62540;48.456;-4.456;2023-12-07T09:30:55;12.66;84.89
74178;DHT22;62540;48.456;-4.456;2023-12-07T09:33:20;12.72;85.00
74178;DHT22;62540;48.456;-4.456;2023-12-07T09:35:46;12.72;84.95
74178;DHT22;62540;48.456;-4.456;2023-12-07T09:38:11;12.78;85.00
74178;DHT22;62540;48.456;-4.456;2023-12-07T09:40:36;12.78;84.95
74178;DHT22;62540;48.456;-4.456;2023-12-07T09:43:02;12.78;84.97
74178;DHT22;62540;48.456;-4.456;2023-12-07T09:45:27;12.72;84.98
74178;DHT22;62540;48.456;-4.456;2023-12-07T09:47:53;12.72;85.16
74178;DHT22;62540;48.456;-4.456;2023-12-07T09:50:25;12.78;85.20
74178;DHT22;62540;48.456;-4.456;2023-12-07T09:52:52;12.79;85.07
74178;DHT22;62540;48.456;-4.456;2023-12-07T09:55:18;12.78;85.05
74178;DHT22;62540;48.456;-4.456;2023-12-07T09:57:46;12.76;85.06
74178;DHT22;62540;48.456;-4.456;2023-12-07T10:00:12;12.75;85.04
74178;DHT22;62540;48.456;-4.456;2023-12-07T10:02:40;12.76;84.97
74178;DHT22;62540;48.456;-4.456;2023-12-07T10:05:10;12.72;85.01
74178;DHT22;62540;48.456;-4.456;2023-12-07T10:07:38;12.68;84.97
74178;DHT22;62540;48.456;-4.456;2023-12-07T10:10:05;12.71;85.00
74178;DHT22;62540;48.456;-4.456;2023-12-07T10:12:31;12.75;84.92
74178;DHT22;62540;48.456;-4.456;2023-12-07T10:14:59;12.68;84.88
74178;DHT22;62540;48.456;-4.456;2023-12-07T10:17:24;12.73;84.84
74178;DHT22;62540;48.456;-4.456;2023-12-07T10:20:08;12.75;84.83
74178;DHT22;62540;48.456;-4.456;2023-12-07T10:22:34;12.72;84.91
74178;DHT22;62540;48.456;-4.456;2023-12-07T10:25:00;12.71;84.91
74178;DHT22;62540;48.456;-4.456;2023-12-07T10:27:26;12.75;84.94
74178;DHT22;62540;48.456;-4.456;2023-12-07T10:29:53;12.75;84.94
74178;DHT22;62540;48.456;-4.456;2023-12-07T10:32:18;12.79;84.78
74178;DHT22;62540;48.456;-4.456;2023-12-07T10:34:45;12.83;84.84
74178;DHT22;62540;48.456;-4.456;2023-12-07T10:37:10;12.76;84.61
74178;DHT22;62540;48.456;-4.456;2023-12-07T10:39:35;12.83;84.64
74178;DHT22;62540;48.456;-4.456;2023-12-07T10:42:02;12.76;84.65
74178;DHT22;62540;48.456;-4.456;2023-12-07T10:44:28;12.75;84.72
74178;DHT22;62540;48.456;-4.456;2023-12-07T10:46:54;12.83;84.71
74178;DHT22;62540;48.456;-4.456;2023-12-07T10:49:21;12.76;84.69
74178;DHT22;62540;48.456;-4.456;2023-12-07T10:51:58;12.78;84.80
74178;DHT22;62540;48.456;-4.456;2023-12-07T10:54:40;12.73;84.77
74178;DHT22;62540;48.456;-4.456;2023-12-07T10:57:08;12.76;84.90
74178;DHT22;62540;48.456;-4.456;2023-12-07T10:59:35;12.73;84.99
74178;DHT22;62540;48.456;-4.456;2023-12-07T11:02:02;12.79;85.02
74178;DHT22;62540;48.456;-4.456;2023-12-07T11:04:29;12.81;85.11
74178;DHT22;62540;48.456;-4.456;2023-12-07T11:07:00;12.75;85.30
74178;DHT22;62540;48.456;-4.456;2023-12-07T11:09:32;12.79;85.37
74178;DHT22;62540;48.456;-4.456;2023-12-07T11:12:11;12.85;85.40
74178;DHT22;62540;48.456;-4.456;2023-12-07T11:14:39;12.90;85.36
74178;DHT22;62540;48.456;-4.456;2023-12-07T11:17:04;12.93;85.25
74178;DHT22;62540;48.456;-4.456;2023-12-07T11:21:59;12.89;85.38
74178;DHT22;62540;48.456;-4.456;2023-12-07T11:24:25;12.92;85.42
74178;DHT22;62540;48.456;-4.456;2023-12-07T11:26:54;12.93;85.48
74178;DHT22;62540;48.456;-4.456;2023-12-07T11:29:21;12.95;85.46
74178;DHT22;62540;48.456;-4.456;2023-12-07T11:31:48;13.02;85.40
74178;DHT22;62540;48.456;-4.456;2023-12-07T11:34:13;13.06;85.32
74178;DHT22;62540;48.456;-4.456;2023-12-07T11:36:54;13.07;85.26
74178;DHT22;62540;48.456;-4.456;2023-12-07T11:39:21;13.07;85.26
74178;DHT22;62540;48.456;-4.456;2023-12-07T11:41:53;13.11;85.20
74178;DHT22;62540;48.456;-4.456;2023-12-07T11:44:19;13.11;85.24
74178;DHT22;62540;48.456;-4.456;2023-12-07T11:46:45;13.09;85.27
74178;DHT22;62540;48.456;-4.456;2023-12-07T11:49:11;13.16;85.36
74178;DHT22;62540;48.456;-4.456;2023-12-07T11:51:37;13.20;85.23
74178;DHT22;62540;48.456;-4.456;2023-12-07T11:54:03;13.28;85.12
74178;DHT22;62540;48.456;-4.456;2023-12-07T11:56:29;13.33;85.04
74178;DHT22;62540;48.456;-4.456;2023-12-07T11:58:56;13.30;85.01
74178;DHT22;62540;48.456;-4.456;2023-12-07T12:01:24;13.36;85.04
74178;DHT22;62540;48.456;-4.456;2023-12-07T12:03:50;13.41;84.99
74178;DHT22;62540;48.456;-4.456;2023-12-07T12:06:15;13.47;84.88
74178;DHT22;62540;48.456;-4.456;2023-12-07T12:08:41;13.44;84.92
74178;DHT22;62540;48.456;-4.456;2023-12-07T12:11:07;13.46;84.99
74178;DHT22;62540;48.456;-4.456;2023-12-07T12:13:37;13.57;85.02
74178;DHT22;62540;48.456;-4.456;2023-12-07T12:16:03;13.62;85.03
74178;DHT22;62540;48.456;-4.456;2023-12-07T12:18:29;13.71;84.94
74178;DHT22;62540;48.456;-4.456;2023-12-07T12:20:55;13.74;84.81
74178;DHT22;62540;48.456;-4.456;2023-12-07T12:23:20;13.74;84.85
74178;DHT22;62540;48.456;-4.456;2023-12-07T12:25:46;13.77;84.97
74178;DHT22;62540;48.456;-4.456;2023-12-07T12:28:16;13.81;84.97
74178;DHT22;62540;48.456;-4.456;2023-12-07T12:30:43;13.85;84.94
74178;DHT22;62540;48.456;-4.456;2023-12-07T12:33:08;13.90;85.01
74178;DHT22;62540;48.456;-4.456;2023-12-07T12:35:33;13.95;85.20
74178;DHT22;62540;48.456;-4.456;2023-12-07T12:37:59;14.04;85.23
74178;DHT22;62540;48.456;-4.456;2023-12-07T12:40:27;14.10;85.18
74178;DHT22;62540;48.456;-4.456;2023-12-07T12:42:54;14.16;85.10
74178;DHT22;62540;48.456;-4.456;2023-12-07T12:45:20;14.23;84.97
74178;DHT22;62540;48.456;-4.456;2023-12-07T12:47:47;14.23;84.91
74178;DHT22;62540;48.456;-4.456;2023-12-07T12:50:32;14.33;84.99
74178;DHT22;62540;48.456;-4.456;2023-12-07T12:52:59;14.32;85.15
74178;DHT22;62540;48.456;-4.456;2023-12-07T12:55:30;14.39;85.28
74178;DHT22;62540;48.456;-4.456;2023-12-07T12:57:56;14.46;85.29
74178;DHT22;62540;48.456;-4.456;2023-12-07T13:00:22;14.48;85.32
74178;DHT22;62540;48.456;-4.456;2023-12-07T13:02:47;14.56;85.31
74178;DHT22;62540;48.456;-4.456;2023-12-07T13:05:13;14.60;85.43
74178;DHT22;62540;48.456;-4.456;2023-12-07T13:07:38;14.71;85.24
74178;DHT22;62540;48.456;-4.456;2023-12-07T13:10:04;14.75;85.15
74178;DHT22;62540;48.456;-4.456;2023-12-07T13:12:29;14.83;85.10
74178;DHT22;62540;48.456;-4.456;2023-12-07T13:14:59;14.91;85.03
74178;DHT22;62540;48.456;-4.456;2023-12-07T13:17:25;14.95;84.94
74178;DHT22;62540;48.456;-4.456;2023-12-07T13:19:51;15.05;84.81
74178;DHT22;62540;48.456;-4.456;2023-12-07T13:22:17;15.09;84.67
74178;DHT22;62540;48.456;-4.456;2023-12-07T13:24:43;15.12;84.51
74178;DHT22;62540;48.456;-4.456;2023-12-07T13:27:08;15.14;84.48
74178;DHT22;62540;48.456;-4.456;2023-12-07T13:29:34;15.19;84.50
74178;DHT22;62540;48.456;-4.456;2023-12-07T13:31:59;15.24;84.43
74178;DHT22;62540;48.456;-4.456;2023-12-07T13:34:24;15.31;84.25
74178;DHT22;62540;48.456;-4.456;2023-12-07T13:36:51;15.36;84.19
74178;DHT22;62540;48.456;-4.456;2023-12-07T13:39:16;15.42;84.04
74178;DHT22;62540;48.456;-4.456;2023-12-07T13:41:45;15.47;83.79
74178;DHT22;62540;48.456;-4.456;2023-12-07T13:44:11;15.50;83.70
74178;DHT22;62540;48.456;-4.456;2023-12-07T13:46:36;15.53;83.56
74178;DHT22;62540;48.456;-4.456;2023-12-07T13:49:02;15.54;83.27
74178;DHT22;62540;48.456;-4.456;2023-12-07T13:51:29;15.57;83.11
74178;DHT22;62540;48.456;-4.456;2023-12-07T13:53:54;15.54;82.67
74178;DHT22;62540;48.456;-4.456;2023-12-07T13:56:21;15.57;83.04
74178;DHT22;62540;48.456;-4.456;2023-12-07T13:58:48;15.56;82.84
74178;DHT22;62540;48.456;-4.456;2023-12-07T14:01:14;15.59;82.49
74178;DHT22;62540;48.456;-4.456;2023-12-07T14:03:40;15.59;82.22
74178;DHT22;62540;48.456;-4.456;2023-12-07T14:06:06;15.56;81.93
74178;DHT22;62540;48.456;-4.456;2023-12-07T14:08:31;15.50;81.98
74178;DHT22;62540;48.456;-4.456;2023-12-07T14:10:57;15.56;82.22
74178;DHT22;62540;48.456;-4.456;2023-12-07T14:13:22;15.54;81.39
74178;DHT22;62540;48.456;-4.456;2023-12-07T14:15:50;15.53;81.48
74178;DHT22;62540;48.456;-4.456;2023-12-07T14:18:16;15.54;82.13
74178;DHT22;62540;48.456;-4.456;2023-12-07T14:20:41;15.56;81.97
74178;DHT22;62540;48.456;-4.456;2023-12-07T14:23:07;15.57;81.74
74178;DHT22;62540;48.456;-4.456;2023-12-07T14:25:33;15.57;81.51
74178;DHT22;62540;48.456;-4.456;2023-12-07T14:27:58;15.57;81.55
74178;DHT22;62540;48.456;-4.456;2023-12-07T14:30:24;15.62;81.45
74178;DHT22;62540;48.456;-4.456;2023-12-07T14:32:49;15.57;81.14
74178;DHT22;62540;48.456;-4.456;2023-12-07T14:35:20;15.62;81.55
74178;DHT22;62540;48.456;-4.456;2023-12-07T14:37:46;15.56;80.71
74178;DHT22;62540;48.456;-4.456;2023-12-07T14:40:12;15.56;81.28
74178;DHT22;62540;48.456;-4.456;2023-12-07T14:42:38;15.60;81.32
74178;DHT22;62540;48.456;-4.456;2023-12-07T14:45:04;15.63;80.97
74178;DHT22;62540;48.456;-4.456;2023-12-07T14:47:30;15.57;80.13
74178;DHT22;62540;48.456;-4.456;2023-12-07T14:49:55;15.57;80.85
74178;DHT22;62540;48.456;-4.456;2023-12-07T14:52:21;15.52;80.58
74178;DHT22;62540;48.456;-4.456;2023-12-07T14:54:46;15.53;80.60
74178;DHT22;62540;48.456;-4.456;2023-12-07T14:57:13;15.45;79.64
74178;DHT22;62540;48.456;-4.456;2023-12-07T14:59:38;15.42;80.36
74178;DHT22;62540;48.456;-4.456;2023-12-07T15:02:04;15.40;79.97
74178;DHT22;62540;48.456;-4.456;2023-12-07T15:04:29;15.35;79.73
74178;DHT22;62540;48.456;-4.456;2023-12-07T15:06:56;15.32;80.26
74178;DHT22;62540;48.456;-4.456;2023-12-07T15:09:21;15.32;80.61
74178;DHT22;62540;48.456;-4.456;2023-12-07T15:11:47;15.26;79.81
74178;DHT22;62540;48.456;-4.456;2023-12-07T15:14:12;15.25;80.05
74178;DHT22;62540;48.456;-4.456;2023-12-07T15:16:38;15.25;80.59